Flight Track Log - Related Links

Times and Time Zones

All times are in EDT time to prevent confusion due to time zone crossing. See the TRS18 flight status page for this flight to view local times or setup timezone preferences in your user account.

Time Position Orientation Groundspeed Altitude Reporting Facility
EDT Latitude Longitude Course Direction KTS MPH feet Rate Location/Type
Thu 11:29:41 PM 33.6622 -84.3608 67° East 450 518 2,800  Level Atlanta Center
Thu 11:30:41 PM 33.6917 -84.2783 67° East 341 392 6,700 3,600 Climbing Atlanta Center
Thu 11:31:41 PM 33.6250 -84.2408 155° Southeast 289 333 10,000 1,650 Climbing Atlanta Center
Thu 11:32:41 PM 33.5331 -84.2308 175° South 341 392 10,000 2,000 Level Atlanta Center
Thu 11:34:41 PM 33.3308 -84.2078 175° South 365 420 16,000 2,333 Climbing Atlanta Center
Thu 11:35:41 PM 33.2222 -84.1978 176° South 382 440 17,000 500 Climbing Atlanta Center
Thu 11:36:41 PM 33.1158 -84.1875 175° South 387 445 17,000 250 Level Atlanta Center
Thu 11:37:41 PM 33.0197 -84.1750 174° South 387 445 17,500 1,700 Climbing Atlanta Center
Thu 11:38:41 PM 32.9133 -84.1403 165° South 392 451 20,400 2,300 Climbing Atlanta Center
Thu 11:39:41 PM 32.7986 -84.0908 160° South 411 473 22,100 2,050 Climbing Atlanta Center
Thu 11:40:41 PM 32.6775 -84.0439 162° South 443 510 24,500 2,100 Climbing Atlanta Center
Thu 11:41:41 PM 32.5503 -83.9894 160° South 469 540 26,300 1,550 Climbing Atlanta Center
Thu 11:42:41 PM 32.4186 -83.9356 161° South 485 558 27,600 1,794 Climbing Atlanta Center
Thu 11:44:55 PM 32.1236 -83.7928 158° South 501 577 32,100 2,103 Climbing Jacksonville Center
Thu 11:45:55 PM 32.0011 -83.7158 152° Southeast 501 577 34,400 2,000 Climbing Jacksonville Center
Thu 11:46:55 PM 31.8658 -83.6339 153° Southeast 495 570 36,100 1,700 Climbing Jacksonville Center
Thu 11:47:55 PM 31.7408 -83.5569 152° Southeast 501 577 37,800 1,450 Climbing Jacksonville Center
Thu 11:48:55 PM 31.6139 -83.4878 155° Southeast 501 577 39,000 600 Climbing Jacksonville Center
Thu 11:49:55 PM 31.4889 -83.4164 154° Southeast 501 577 39,000  Level Jacksonville Center
Thu 11:50:55 PM 31.3661 -83.3453 154° Southeast 496 571 39,000  Level Jacksonville Center
Thu 11:51:55 PM 31.2431 -83.2742 154° Southeast 496 571 39,000  Level Jacksonville Center
Thu 11:52:55 PM 31.1222 -83.2008 153° Southeast 491 565 39,000  Level Jacksonville Center
Thu 11:53:55 PM 30.9992 -83.1325 155° Southeast 486 559 39,000  Level Jacksonville Center
Thu 11:54:55 PM 30.8761 -83.0597 153° Southeast 486 559 39,000  Level Jacksonville Center
Thu 11:55:55 PM 30.7572 -82.9869 152° Southeast 486 559 39,000  Level Jacksonville Center
Thu 11:56:55 PM 30.6403 -82.9239 155° Southeast 491 565 39,000  Level Jacksonville Center
Thu 11:57:55 PM 30.5086 -82.8444 153° Southeast 496 571 39,000 -1,100 Level Jacksonville Center
Thu 11:58:55 PM 30.3814 -82.7697 153° Southeast 496 571 36,800 -2,700 Descending Jacksonville Center
Thu 11:59:55 PM 30.2517 -82.7003 155° Southeast 502 578 33,600 -3,400 Descending Jacksonville Center
Fri 12:00:55 AM 30.1369 -82.6356 154° Southeast 507 583 30,000 -3,300 Descending Jacksonville Center
Fri 12:01:55 AM 29.9925 -82.5519 153° Southeast 512 589 27,000 -1,850 Descending Jacksonville Center
Fri 12:02:55 AM 29.8650 -82.4806 154° Southeast 512 589 26,300 -900 Descending Jacksonville Center
Fri 12:03:55 AM 29.7353 -82.4069 154° Southeast 512 589 25,200 -950 Descending Jacksonville Center
Fri 12:04:55 AM 29.6264 -82.3456 154° Southeast 507 583 24,400 -950 Descending Jacksonville Center
Fri 12:05:55 AM 29.5050 -82.2769 154° Southeast 497 572 23,300 -1,050 Descending Jacksonville Center
Fri 12:06:55 AM 29.3878 -82.2133 155° Southeast 480 552 22,300 -1,550 Descending Jacksonville Center
Fri 12:07:55 AM 29.2728 -82.1497 154° Southeast 469 540 20,200 -2,500 Descending Jacksonville Center
Fri 12:08:55 AM 29.1658 -82.0911 154° Southeast 447 514 17,300 -3,000 Descending Jacksonville Center
Fri 12:09:55 AM 29.0675 -82.0372 154° Southeast 422 486 14,200 -2,700 Descending Jacksonville Center
Fri 12:10:55 AM 28.9711 -81.9811 153° Southeast 397 457 11,900 -1,600 Descending Jacksonville Center
Fri 12:11:55 AM 28.8894 -81.9369 155° Southeast 362 417 11,000 -1,000 Descending Jacksonville Center
Fri 12:12:55 AM 28.8469 -81.8567 121° Southeast 307 353 9,900 -1,869 Descending Jacksonville Center
Fri 12:13:57 AM 28.8000 -81.7833 126° Southeast 280 322 7,200 -1,918 Descending Orlando TRACON
Fri 12:14:57 AM 28.7500 -81.7000 124° Southeast 273 314 6,000 -1,091 Descending Orlando TRACON
Fri 12:15:58 AM 28.7167 -81.6333 120° Southeast 262 302 5,000 -500 Descending Orlando TRACON
Fri 12:16:57 AM 28.6833 -81.5667 120° Southeast 252 290 5,000 -500 Level Orlando TRACON
Fri 12:17:58 AM 28.6667 -81.4833 103° East 259 298 4,000 -1,200 Descending Orlando TRACON
Fri 12:18:52 AM 28.6333 -81.4167 120° Southeast 249 287 2,700 -833 Descending Orlando TRACON
Fri 12:19:46 AM 28.6167 -81.3667 111° Southeast 215 247 2,500 -87 Descending Orlando TRACON
Fri 12:21:10 AM 28.5500 -81.3333 156° South 142 163 2,500 -261 Level Orlando TRACON
Fri 12:22:04 AM 28.5333 -81.3167 139° Southeast 119 137 1,900 -722 Descending Orlando TRACON
Fri 12:22:58 AM 28.5000 -81.3000 156° South 105 121 1,200 -632 Descending Orlando TRACON
Fri 12:23:58 AM 28.4667 -81.3000 180° South 113 130 700 -500 Descending Orlando TRACON
Fri 12:25:00 AM 28.4294 -81.3090 218° Southwest  Level Estimated
Fri 12:32:00 AM 28.4294 -81.3090 24° Northeast  Level Estimated
Fri 12:33:00 AM 28.4294 -81.3090 24° Northeast  Level Estimated
Fri 12:34:00 AM 28.4294 -81.3090 24° Northeast  Level Estimated
Fri 12:35:00 AM 28.4294 -81.3090 24° Northeast  Level Estimated

Login

Don't have an account? Register now (free) for customized features, flight alerts, and more!